CheckWX is a tool to help pilots better visualize weather data.  It is not intended as a substitute for an official pre-flight weather briefing.

14:04:12 UTC

KMGM TAF
Montgomery Regional (Dannelly Field) Airport
Montgomery, Alabama, USA
KMGM 061742Z 0618/0718 04005KT P6SM VCTS SCT027CB BKN040 FM070400 VRB03KT P6SM BKN030 FM071200 00000KT P6SM BKN009 PROB30 0712/0714 4SM -SHRA OVC004 FM071400 VRB03KT P6SM BKN016 PROB30 0714/0715 4SM -SHRA OVC008 FM071600 VRB03KT P6SM SHRA BKN021

Jul-6@
18:00 UTC

Jul-6 @ 18:00 UTC

Jul-7@
04:00 UTC

Jul-7 @ 04:00 UTC

TAF KMGM 061742Z 0618/0718 04005KT P6SM VCTS SCT027CB BKN040

Expired

Wind
  • 040° at 5 KTS
Conditions
Area Thunderstorm
Cloud Levels
  • Scattered at 2,700' AGL
  • Broken at 4,000' AGL

Jul-7@
04:00 UTC

Jul-7 @ 04:00 UTC

Jul-7@
12:00 UTC

Jul-7 @ 12:00 UTC

FM070400 VRB03KT P6SM BKN030

Expired

Wind
  • Variable at 3 KTS
Cloud Levels
  • Broken at 3,000' AGL

Jul-7@
12:00 UTC

Jul-7 @ 12:00 UTC

Jul-7@
14:00 UTC

Jul-7 @ 14:00 UTC

FM071200 00000KT P6SM BKN009

Expired

Cloud Levels
  • Broken at 900' AGL

Jul-7@
12:00 UTC

Jul-7 @ 12:00 UTC

Jul-7@
14:00 UTC

Jul-7 @ 14:00 UTC

PROB30 0712/0714 4SM -SHRA OVC004

Expired

Conditions
Light Showers, Rain
Cloud Levels
  • Overcast at 400' AGL

Jul-7@
14:00 UTC

Jul-7 @ 14:00 UTC

Jul-7@
15:00 UTC

Jul-7 @ 15:00 UTC

PROB30 0714/0715 4SM -SHRA OVC008

Probable - 30% Likelihood

Probable - 30% Likelihood during this time.

Conditions
Light Showers, Rain
Cloud Levels
  • Overcast at 800' AGL

Jul-7@
14:00 UTC

Jul-7 @ 14:00 UTC

Jul-7@
16:00 UTC

Jul-7 @ 16:00 UTC

FM071400 VRB03KT P6SM BKN016

From

From Standard forecast or significant change

Wind
  • Variable at 3 KTS
Cloud Levels
  • Broken at 1,600' AGL

Jul-7@
16:00 UTC

Jul-7 @ 16:00 UTC

Jul-7@
18:00 UTC

Jul-7 @ 18:00 UTC

FM071600 VRB03KT P6SM SHRA BKN021

From

From Standard forecast or significant change

Wind
  • Variable at 3 KTS
Conditions
Showers, Rain
Cloud Levels
  • Broken at 2,100' AGL